RJFA(METAR)
10/21 04:00
METAR RJFA 201900Z 15007KT 9999 FEW030 SCT/// 11/09 Q1021 RMK 1CU030
A3016=
戻る
トップページへ戻る
IMOC Co,.Ltd.